Terminal Aerodrome Forecast
Issued by NWS

Home | Current Version | Previous Version | Graphics & Text | Print | Product List | Glossary On
Versions: 1 2 3 4 5 6 7 8 9 10 11 12 13 14 15 16 17 18
410
FTUS43 KTOP 191137
TAFFOE
TAF
KFOE 191137Z 1912/2012 16006KT 3SM BR SCT250
      TEMPO 1912/1915 3/4SM BR BKN005
     FM191600 17008KT 5SM BR BKN012
     FM191800 17011KT P6SM SCT025
     FM200400 16010KT 4SM BR OVC012
     FM200800 17011KT 3SM BR VCSH OVC008=

USA.gov is the U.S. government's official web portal to all federal, state and local government web resources and services.